• Join FlightAware (Why Join?)
  • Login
  • US Flag GB Flag 
08:24 EDT


 

Airport Tracker/Info


-or-


 

Live Flight TrackerFlight Track Log ✈ CTL18 ✈ 16-Apr-2013 ✈ KMBS - KYIP

Flight Track Log - Related Links

Times and Time Zones

All times are in EDT time to prevent confusion due to time zone crossing. See the CTL18 flight status page for this flight to view local times or setup timezone preferences in your user account.

Time Position Orientation Groundspeed Altitude Reporting Facility
EDT Latitude Longitude Course Direction KTS MPH feet Rate Location/Type
19:40 43.3619 -84.0057 160° South  Level Estimated
19:41 43.3366 -83.9838 148° Southeast  Level FlightAware Approximate
19:42 43.3080 -83.9718 160° South  Level Estimated
19:43 43.2807 -83.9553 156° South  Level FlightAware Approximate
19:44 43.2533 -83.9388 156° South  Level FlightAware Approximate
19:45 43.2247 -83.9271 163° South  Level Estimated
19:46 43.1965 -83.9134 161° South  Level FlightAware Approximate
19:47 43.1683 -83.8997 161° South  Level FlightAware Approximate
19:48 43.1401 -83.8861 161° South  Level FlightAware Approximate
19:49 43.1115 -83.8746 160° South  Level Estimated
19:50 43.0835 -83.8603 160° South  Level FlightAware Approximate
19:50 42.8814 -83.7539 161° South 179 206 5,000  Level Cleveland Center
19:51 43.0555 -83.8461 160° South  Level FlightAware Approximate
19:51 42.8278 -83.7342 165° South 177 204 5,000  Level Cleveland Center
19:52 43.0275 -83.8318 160° South  Level FlightAware Approximate
19:52 42.7783 -83.7147 164° South 177 204 5,000  Level Cleveland Center
19:53 42.9995 -83.8176 160° South  Level FlightAware Approximate
19:53 42.7222 -83.7006 169° South 178 205 5,000  Level Cleveland Center
19:54 42.9715 -83.8033 160° South  Level FlightAware Approximate
19:54 42.6769 -83.6814 163° South 176 203 5,000  Level Cleveland Center
19:55 42.9435 -83.7891 160° South  Level FlightAware Approximate
19:55 42.6294 -83.6678 168° South 178 205 4,800  Level Cleveland Center
19:56 42.5756 -83.6511 167° South 190 219 4,400 -480 Descending Cleveland Center
19:57 42.5239 -83.6372 169° South 187 215 3,900 -300 Descending Cleveland Center
19:58 42.4744 -83.6150 162° South 173 199 3,900 -60 Level Cleveland Center
20:00 42.4250 -83.5958 164° South 183 211 3,800 -180 Descending Cleveland Center
20:01 42.3775 -83.5767 163° South 183 211 3,600 -300 Descending Cleveland Center
20:02 42.3264 -83.5378 151° Southeast 183 211 3,200 -360 Descending Cleveland Center
20:03 42.2964 -83.4914 131° Southeast 165 190 2,900 -780 Descending Cleveland Center
20:04 42.2625 -83.5039 195° South 123 142 1,800 -1,200 Descending Cleveland Center
20:06 42.2333 -83.5167 160° South  Level FlightAware Approximate
20:13 42.2393 -83.5310 160° South  Level Estimated
20:14 42.2393 -83.5310 160° South  Level Estimated